createdAt,value
2022-07-27T00:01:09.646Z,32.30
2022-07-27T00:03:37.929Z,33.78
2022-07-27T00:06:06.035Z,33.30
2022-07-27T00:08:34.470Z,31.35
2022-07-27T00:11:02.790Z,35.00
2022-07-27T00:13:31.726Z,32.55
2022-07-27T00:15:59.433Z,36.70
2022-07-27T00:18:27.165Z,32.35
2022-07-27T00:20:55.316Z,33.28
2022-07-27T00:23:22.998Z,30.20
2022-07-27T00:25:50.743Z,31.42
2022-07-27T00:28:18.551Z,32.88
2022-07-27T00:30:46.269Z,30.65
2022-07-27T00:33:17.334Z,31.17
2022-07-27T00:35:45.935Z,32.38
2022-07-27T00:38:13.810Z,33.45
2022-07-27T00:40:41.716Z,31.02
2022-07-27T00:43:09.443Z,29.13
2022-07-27T00:45:37.369Z,34.15
2022-07-27T00:48:05.983Z,31.90
2022-07-27T00:50:35.151Z,32.13
2022-07-27T00:53:05.018Z,30.52
2022-07-27T00:55:33.775Z,31.88
2022-07-27T00:58:02.541Z,31.73
2022-07-27T01:00:30.623Z,34.30
2022-07-27T01:02:58.371Z,31.25
2022-07-27T01:05:36.351Z,31.17
2022-07-27T01:08:07.875Z,32.45
2022-07-27T01:10:36.124Z,29.95
2022-07-27T01:13:03.935Z,31.63
2022-07-27T01:15:35.182Z,30.88
2022-07-27T01:18:10.415Z,30.42
2022-07-27T01:20:39.581Z,29.92
2022-07-27T01:23:07.330Z,29.80
2022-07-27T01:25:35.079Z,33.17
2022-07-27T01:28:02.773Z,29.10
2022-07-27T01:30:30.786Z,32.83
2022-07-27T01:33:06.858Z,33.47
2022-07-27T01:35:35.661Z,29.45
2022-07-27T01:38:04.307Z,30.83
2022-07-27T01:40:32.166Z,32.63
2022-07-27T01:43:02.810Z,28.80
2022-07-27T01:45:30.595Z,28.30
2022-07-27T01:47:58.388Z,28.80
2022-07-27T01:50:26.184Z,29.55
2022-07-27T01:52:54.024Z,29.45
2022-07-27T01:55:23.283Z,30.70
2022-07-27T01:57:51.979Z,31.23
2022-07-27T02:00:19.670Z,28.00
2022-07-27T02:02:47.704Z,31.17
2022-07-27T02:05:15.738Z,31.27
2022-07-27T02:07:43.655Z,30.13
2022-07-27T02:10:11.419Z,30.55
2022-07-27T02:12:39.789Z,30.05
2022-07-27T02:15:15.561Z,30.02
2022-07-27T02:17:44.779Z,28.73
2022-07-27T02:20:14.965Z,27.73
2022-07-27T02:22:43.457Z,28.33
2022-07-27T02:25:12.991Z,32.13
2022-07-27T02:27:41.932Z,32.95
2022-07-27T02:30:12.316Z,31.83
2022-07-27T02:32:44.259Z,28.48
2022-07-27T02:35:19.700Z,30.95
2022-07-27T02:37:49.110Z,31.40
2022-07-27T02:40:18.032Z,31.25
2022-07-27T02:42:46.997Z,32.08
2022-07-27T02:45:15.918Z,30.42
2022-07-27T02:47:44.677Z,32.58
2022-07-27T02:50:12.764Z,32.63
2022-07-27T02:52:41.928Z,29.50
2022-07-27T02:55:10.817Z,31.55
2022-07-27T02:57:41.148Z,32.88
2022-07-27T03:00:12.872Z,32.67
2022-07-27T03:02:41.139Z,28.95
2022-07-27T03:05:10.791Z,32.75
2022-07-27T03:07:38.854Z,30.35
2022-07-27T03:10:07.201Z,29.95
2022-07-27T03:12:35.035Z,31.98
2022-07-27T03:15:02.815Z,33.58
2022-07-27T03:17:30.485Z,30.73
2022-07-27T03:19:58.298Z,33.75
2022-07-27T03:22:26.017Z,34.38
2022-07-27T03:24:53.667Z,33.15
2022-07-27T03:27:21.322Z,33.92
2022-07-27T03:29:49.110Z,31.67
2022-07-27T03:32:16.825Z,32.22
2022-07-27T03:34:44.526Z,33.78
2022-07-27T03:37:12.525Z,29.38
2022-07-27T03:39:40.181Z,30.33
2022-07-27T03:42:08.034Z,33.03
2022-07-27T03:44:35.749Z,29.30
2022-07-27T03:47:03.411Z,29.60
2022-07-27T03:49:32.185Z,28.23
2022-07-27T03:51:59.914Z,30.20
2022-07-27T03:54:27.737Z,29.25
2022-07-27T03:56:55.487Z,28.10
2022-07-27T03:59:23.228Z,29.90
2022-07-27T04:01:51.011Z,32.50
2022-07-27T04:04:18.712Z,31.27
2022-07-27T04:06:46.389Z,31.13
2022-07-27T04:09:14.542Z,34.80
2022-07-27T04:11:50.966Z,31.80
2022-07-27T04:14:19.810Z,32.22
2022-07-27T04:16:52.131Z,32.78
2022-07-27T04:19:19.993Z,32.70
2022-07-27T04:21:48.051Z,32.05
2022-07-27T04:24:15.909Z,31.15
2022-07-27T04:26:43.684Z,37.03
2022-07-27T04:29:11.594Z,33.75
2022-07-27T04:31:39.569Z,34.53
2022-07-27T04:34:07.211Z,37.25
2022-07-27T04:36:42.558Z,33.90
2022-07-27T04:39:10.499Z,33.58
2022-07-27T04:41:38.555Z,37.25
2022-07-27T04:44:06.257Z,33.20
2022-07-27T04:46:34.139Z,32.35
2022-07-27T04:49:01.977Z,31.40
2022-07-27T04:51:34.314Z,33.85
2022-07-27T04:54:03.360Z,35.70
2022-07-27T04:56:31.014Z,35.10
2022-07-27T04:58:58.760Z,35.42
2022-07-27T05:01:30.378Z,36.50
2022-07-27T05:04:07.343Z,33.70
2022-07-27T05:06:35.152Z,36.85
2022-07-27T05:09:03.877Z,35.35
2022-07-27T05:11:31.548Z,33.90
2022-07-27T05:13:59.340Z,36.53
2022-07-27T05:16:39.434Z,34.45
2022-07-27T05:19:40.874Z,28.90
2022-07-27T05:22:13.748Z,27.45
2022-07-27T05:24:42.475Z,32.78
2022-07-27T05:27:10.200Z,32.80
2022-07-27T05:29:38.312Z,33.47
2022-07-27T05:32:06.720Z,32.95
2022-07-27T05:34:34.486Z,31.17
2022-07-27T05:37:05.054Z,32.78
2022-07-27T05:39:32.966Z,28.40
2022-07-27T05:42:01.893Z,29.95
2022-07-27T05:44:36.652Z,26.80
2022-07-27T05:49:34.478Z,20.58
2022-07-27T05:52:02.703Z,24.27
2022-07-27T05:54:37.166Z,23.23
2022-07-27T05:57:08.620Z,20.43
2022-07-27T05:59:41.142Z,21.35
2022-07-27T06:02:12.615Z,23.58
2022-07-27T06:04:49.037Z,22.60
2022-07-27T06:07:37.915Z,25.27
2022-07-27T06:10:11.669Z,25.63
2022-07-27T06:12:41.455Z,23.38
2022-07-27T06:15:17.386Z,27.55
2022-07-27T06:18:15.306Z,30.10
2022-07-27T06:20:47.888Z,23.88
2022-07-27T06:23:18.604Z,23.30
2022-07-27T06:25:46.889Z,20.77
2022-07-27T06:28:19.531Z,19.38
2022-07-27T06:31:13.670Z,22.90
2022-07-27T06:34:11.730Z,22.40
2022-07-27T06:36:46.291Z,23.95
2022-07-27T06:39:15.265Z,24.55
2022-07-27T06:41:46.747Z,23.65
2022-07-27T06:44:14.662Z,25.02
2022-07-27T06:46:42.986Z,26.27
2022-07-27T06:49:11.201Z,30.85
2022-07-27T06:51:39.667Z,29.00
2022-07-27T06:54:07.371Z,28.00
2022-07-27T06:56:38.267Z,30.80
2022-07-27T06:59:06.818Z,25.05
2022-07-27T07:01:34.544Z,33.17
2022-07-27T07:04:02.877Z,32.83
2022-07-27T07:06:30.696Z,32.58
2022-07-27T07:08:58.538Z,34.70
2022-07-27T07:11:26.505Z,28.80
2022-07-27T07:13:54.226Z,27.85
2022-07-27T07:16:25.697Z,26.85
2022-07-27T07:18:53.512Z,30.63
2022-07-27T07:21:22.157Z,33.50
2022-07-27T07:23:50.271Z,31.45
2022-07-27T07:26:18.228Z,32.65
2022-07-27T07:28:48.428Z,28.08
2022-07-27T07:31:16.702Z,30.48
2022-07-27T07:33:44.546Z,33.50
2022-07-27T07:36:15.105Z,39.63
2022-07-27T07:38:44.638Z,36.25
2022-07-27T07:41:13.158Z,29.88
2022-07-27T07:43:42.364Z,31.67
2022-07-27T07:46:10.305Z,32.50
2022-07-27T07:48:39.665Z,34.28
2022-07-27T07:51:07.524Z,32.45
2022-07-27T07:53:39.303Z,30.27
2022-07-27T07:56:14.263Z,31.98
2022-07-27T07:58:45.049Z,30.02
2022-07-27T08:01:12.779Z,35.03
2022-07-27T08:03:40.487Z,34.17
2022-07-27T08:06:08.495Z,32.67
2022-07-27T08:08:36.195Z,34.05
2022-07-27T08:11:04.083Z,34.47
2022-07-27T08:13:31.967Z,34.20
2022-07-27T08:15:59.859Z,32.75
2022-07-27T08:18:27.603Z,35.88
2022-07-27T08:20:55.297Z,31.92
2022-07-27T08:23:24.966Z,33.38
2022-07-27T08:25:53.325Z,34.85
2022-07-27T08:28:21.324Z,36.85
2022-07-27T08:30:52.424Z,38.85
2022-07-27T08:33:21.074Z,39.75
2022-07-27T08:35:48.861Z,46.95
2022-07-27T08:38:16.603Z,43.30
2022-07-27T08:40:46.350Z,42.35
2022-07-27T08:43:21.955Z,40.35
2022-07-27T08:46:01.541Z,37.97
2022-07-27T08:48:31.800Z,33.67
2022-07-27T08:51:02.095Z,39.30
2022-07-27T08:53:35.889Z,38.92
2022-07-27T08:56:20.337Z,38.40
2022-07-27T08:58:48.209Z,44.25
2022-07-27T09:01:16.163Z,44.95
2022-07-27T09:03:44.075Z,42.17
2022-07-27T09:06:12.031Z,45.00
2022-07-27T09:08:41.959Z,47.25
2022-07-27T09:11:15.627Z,41.20
2022-07-27T09:13:43.420Z,41.55
2022-07-27T09:16:20.379Z,47.92
2022-07-27T09:18:58.188Z,42.40
2022-07-27T09:21:26.671Z,43.60
2022-07-27T09:23:57.443Z,45.47
2022-07-27T09:26:33.388Z,43.22
2022-07-27T09:29:07.909Z,43.28
2022-07-27T09:31:51.512Z,41.47
2022-07-27T09:34:31.234Z,41.53
2022-07-27T09:37:00.459Z,44.65
2022-07-27T09:39:29.129Z,46.92
2022-07-27T09:42:03.331Z,46.25
2022-07-27T09:44:43.732Z,46.40
2022-07-27T09:47:28.173Z,41.78
2022-07-27T09:50:19.795Z,39.95
2022-07-27T09:52:47.714Z,38.78
2022-07-27T09:55:21.028Z,42.83
2022-07-27T09:57:56.793Z,47.35
2022-07-27T10:00:25.883Z,44.10
2022-07-27T10:02:55.153Z,42.28
2022-07-27T10:05:23.444Z,37.28
2022-07-27T10:07:54.109Z,39.20
2022-07-27T10:10:23.249Z,40.53
2022-07-27T10:12:55.139Z,36.03
2022-07-27T10:15:24.693Z,36.55
2022-07-27T10:18:01.813Z,38.22
2022-07-27T10:20:31.935Z,38.33
2022-07-27T10:23:00.290Z,39.63
2022-07-27T10:25:37.290Z,39.55
2022-07-27T10:28:10.440Z,38.58
2022-07-27T10:30:38.848Z,40.50
2022-07-27T10:33:38.049Z,43.50
2022-07-27T10:36:16.839Z,41.88
2022-07-27T10:38:52.897Z,39.75
2022-07-27T10:41:22.366Z,40.42
2022-07-27T10:43:51.471Z,37.65
2022-07-27T10:46:22.500Z,38.47
2022-07-27T10:48:50.370Z,42.67
2022-07-27T10:51:35.230Z,36.63
2022-07-27T10:54:22.240Z,39.63
2022-07-27T10:56:52.098Z,36.50
2022-07-27T11:00:10.225Z,36.97
2022-07-27T11:02:42.801Z,31.38
2022-07-27T11:08:35.333Z,33.83
2022-07-27T11:10:51.182Z,30.33
2022-07-27T11:13:24.028Z,33.45
2022-07-27T11:16:15.630Z,34.30
2022-07-27T11:19:02.555Z,37.33
2022-07-27T11:21:39.318Z,33.33
2022-07-27T11:24:14.928Z,29.70
2022-07-27T11:26:45.812Z,30.63
2022-07-27T11:29:16.005Z,38.20
2022-07-27T11:31:56.383Z,35.83
2022-07-27T11:34:36.318Z,37.92
2022-07-27T11:37:13.821Z,39.85
2022-07-27T11:39:59.660Z,35.72
2022-07-27T11:42:40.658Z,35.95
2022-07-27T11:45:09.217Z,36.47
2022-07-27T11:47:37.294Z,43.33
2022-07-27T11:50:11.594Z,38.70
2022-07-27T11:52:39.534Z,37.33
2022-07-27T11:55:08.254Z,43.20
2022-07-27T11:57:36.157Z,40.65
2022-07-27T12:00:06.585Z,37.85
2022-07-27T12:02:49.133Z,39.20
2022-07-27T12:05:17.092Z,32.97
2022-07-27T12:07:45.052Z,36.88
2022-07-27T12:10:14.534Z,37.95
2022-07-27T12:12:49.445Z,34.97
2022-07-27T12:15:45.969Z,34.85
2022-07-27T12:18:07.855Z,63.08
2022-07-27T12:20:37.432Z,33.53
2022-07-27T12:23:08.012Z,31.52
2022-07-27T12:25:36.588Z,28.88
2022-07-27T12:28:07.649Z,32.53
2022-07-27T12:30:37.667Z,29.13
2022-07-27T12:33:39.399Z,28.27
2022-07-27T12:36:09.742Z,29.92
2022-07-27T12:38:46.714Z,33.55
2022-07-27T12:41:32.630Z,34.03
2022-07-27T12:44:12.181Z,34.90
2022-07-27T12:46:59.475Z,33.22
2022-07-27T12:49:29.552Z,27.02
2022-07-27T12:52:08.644Z,29.48
2022-07-27T12:54:36.892Z,32.17
2022-07-27T12:57:04.756Z,37.38
2022-07-27T12:59:34.933Z,43.55
2022-07-27T13:02:02.723Z,46.95
2022-07-27T13:04:30.556Z,47.17
2022-07-27T13:06:58.374Z,48.20
2022-07-27T13:09:26.182Z,49.92
2022-07-27T13:12:14.495Z,51.90
2022-07-27T13:14:43.385Z,47.78
2022-07-27T13:17:11.515Z,44.35
2022-07-27T13:19:39.212Z,44.92
2022-07-27T13:22:07.316Z,49.78
2022-07-27T13:24:35.061Z,32.15
2022-07-27T13:27:03.058Z,28.30
2022-07-27T13:29:30.810Z,25.33
2022-07-27T13:31:58.541Z,19.08
2022-07-27T13:34:26.457Z,20.20
2022-07-27T13:36:54.692Z,18.38
2022-07-27T13:39:22.571Z,18.58
2022-07-27T13:41:54.975Z,16.83
2022-07-27T13:44:57.479Z,16.65
2022-07-27T13:47:12.059Z,17.52
2022-07-27T13:49:39.771Z,17.77
2022-07-27T13:52:09.037Z,22.60
2022-07-27T13:54:36.712Z,26.63
2022-07-27T13:57:04.470Z,33.33
2022-07-27T13:59:32.221Z,42.90
2022-07-27T14:01:59.969Z,46.92
2022-07-27T14:04:29.145Z,53.10
2022-07-27T14:06:58.945Z,60.20
2022-07-27T14:09:46.557Z,51.75
2022-07-27T14:12:15.095Z,47.00
2022-07-27T14:14:42.846Z,53.00
2022-07-27T14:17:10.760Z,60.53
2022-07-27T14:19:38.457Z,57.20
2022-07-27T14:22:10.663Z,52.92
2022-07-27T14:24:39.050Z,49.65
2022-07-27T14:27:07.294Z,56.60
2022-07-27T14:29:36.295Z,56.08
2022-07-27T14:32:04.272Z,59.05
2022-07-27T14:34:32.086Z,57.72
2022-07-27T14:36:59.894Z,54.42
2022-07-27T14:39:27.599Z,65.50
2022-07-27T14:41:55.260Z,43.40
2022-07-27T14:44:23.301Z,40.00
2022-07-27T14:46:51.140Z,49.42
2022-07-27T14:49:24.985Z,37.40
2022-07-27T14:51:54.059Z,32.30
2022-07-27T14:54:21.788Z,33.50
2022-07-27T14:56:49.674Z,30.42
2022-07-27T14:59:19.812Z,30.95
2022-07-27T15:01:49.931Z,29.98
2022-07-27T15:04:18.418Z,30.98
2022-07-27T15:06:59.888Z,28.10
2022-07-27T15:09:33.251Z,28.00
2022-07-27T15:12:01.332Z,25.30
2022-07-27T15:14:29.415Z,27.42
2022-07-27T15:16:57.578Z,29.88
2022-07-27T15:19:25.640Z,29.58
2022-07-27T15:21:53.645Z,27.67
2022-07-27T15:24:21.620Z,27.40
2022-07-27T15:26:49.479Z,22.05
2022-07-27T15:29:17.253Z,18.77
2022-07-27T15:31:45.135Z,17.67
2022-07-27T15:34:15.621Z,16.65
2022-07-27T15:36:47.371Z,15.55
2022-07-27T15:39:21.063Z,16.63
2022-07-27T15:41:49.562Z,18.40
2022-07-27T15:44:21.994Z,16.83
2022-07-27T15:46:49.925Z,18.30
2022-07-27T15:49:18.610Z,16.98
2022-07-27T15:51:48.079Z,17.52
2022-07-27T15:54:15.901Z,17.33
2022-07-27T15:56:43.654Z,14.70
2022-07-27T15:59:11.486Z,16.48
2022-07-27T16:01:39.698Z,16.27
2022-07-27T16:04:07.970Z,17.08
2022-07-27T16:06:39.405Z,17.27
2022-07-27T16:09:09.632Z,15.90
2022-07-27T16:11:38.074Z,17.27
2022-07-27T16:14:06.230Z,16.80
2022-07-27T16:16:34.263Z,18.05
2022-07-27T16:19:12.526Z,17.85
2022-07-27T16:21:54.052Z,17.35
2022-07-27T16:24:26.010Z,16.02
2022-07-27T16:26:54.065Z,17.90
2022-07-27T16:29:22.160Z,16.98
2022-07-27T16:31:58.041Z,19.27
2022-07-27T16:34:31.425Z,22.25
2022-07-27T16:37:00.583Z,21.67
2022-07-27T16:39:28.650Z,23.10
2022-07-27T16:41:56.409Z,23.10
2022-07-27T16:44:24.232Z,24.50
2022-07-27T16:46:52.610Z,28.60
2022-07-27T16:49:21.198Z,33.13
2022-07-27T16:52:01.075Z,31.50
2022-07-27T16:54:28.827Z,25.40
2022-07-27T16:56:57.525Z,29.27
2022-07-27T16:59:25.398Z,35.45
2022-07-27T17:01:53.177Z,35.13
2022-07-27T17:04:24.081Z,35.03
2022-07-27T17:06:52.152Z,35.55
2022-07-27T17:09:19.779Z,32.45
2022-07-27T17:11:47.818Z,33.22
2022-07-27T17:14:16.738Z,35.17
2022-07-27T17:16:51.677Z,38.97
2022-07-27T17:19:49.835Z,36.33
2022-07-27T17:22:38.028Z,32.95
2022-07-27T17:25:06.476Z,33.75
2022-07-27T17:27:36.662Z,41.83
2022-07-27T17:30:07.256Z,44.47
2022-07-27T17:32:38.168Z,42.38
2022-07-27T17:35:07.317Z,52.58
2022-07-27T17:38:04.514Z,61.45
2022-07-27T17:40:28.947Z,50.10
2022-07-27T17:42:57.409Z,54.22
2022-07-27T17:45:25.209Z,46.95
2022-07-27T17:47:53.006Z,54.25
2022-07-27T17:50:20.931Z,52.72
2022-07-27T17:53:04.985Z,54.42
2022-07-27T17:55:41.113Z,43.65
2022-07-27T17:58:11.256Z,45.80
2022-07-27T18:00:40.462Z,52.35
2022-07-27T18:03:11.349Z,50.47
2022-07-27T18:05:40.280Z,52.80
2022-07-27T18:08:08.161Z,55.15
2022-07-27T18:10:38.678Z,56.63
2022-07-27T18:13:14.130Z,54.67
2022-07-27T18:15:47.933Z,53.95
2022-07-27T18:19:17.588Z,51.08
2022-07-27T18:21:22.656Z,49.20
2022-07-27T18:23:50.571Z,49.03
2022-07-27T18:26:22.118Z,46.80
2022-07-27T18:28:52.675Z,47.65
2022-07-27T18:31:24.287Z,49.15
2022-07-27T18:33:55.472Z,45.17
2022-07-27T18:36:32.270Z,46.83
2022-07-27T18:39:01.163Z,42.58
2022-07-27T18:41:28.955Z,41.20
2022-07-27T18:43:57.864Z,36.88
2022-07-27T18:46:25.751Z,40.15
2022-07-27T18:48:53.722Z,44.78
2022-07-27T18:51:21.889Z,34.88
2022-07-27T18:53:49.652Z,39.10
2022-07-27T18:56:19.211Z,39.55
2022-07-27T18:58:46.949Z,34.85
2022-07-27T19:01:16.593Z,40.08
2022-07-27T19:03:44.573Z,37.30
2022-07-27T19:06:12.606Z,37.72
2022-07-27T19:08:46.664Z,41.13
2022-07-27T19:11:17.512Z,42.50
2022-07-27T19:13:47.830Z,37.45
2022-07-27T19:16:15.684Z,41.55
2022-07-27T19:18:48.058Z,32.95
2022-07-27T19:21:17.048Z,36.25
2022-07-27T19:23:45.347Z,33.30
2022-07-27T19:26:13.530Z,38.47
2022-07-27T19:28:44.249Z,32.65
2022-07-27T19:31:22.933Z,35.53
2022-07-27T19:33:53.158Z,37.10
2022-07-27T19:36:23.231Z,35.97
2022-07-27T19:38:51.717Z,34.30
2022-07-27T19:41:19.777Z,38.92
2022-07-27T19:43:47.788Z,36.28
2022-07-27T19:46:15.934Z,36.80
2022-07-27T19:48:43.871Z,33.45
2022-07-27T19:51:11.654Z,35.05
2022-07-27T19:53:41.228Z,32.80
2022-07-27T19:56:12.230Z,31.05
2022-07-27T19:58:43.115Z,28.65
2022-07-27T20:01:11.923Z,30.40
2022-07-27T20:03:52.328Z,33.88
2022-07-27T20:06:24.480Z,29.60
2022-07-27T20:08:59.747Z,32.95
2022-07-27T20:11:30.889Z,30.10
2022-07-27T20:13:59.767Z,29.95
2022-07-27T20:16:29.904Z,28.13
2022-07-27T20:18:58.357Z,29.92
2022-07-27T20:21:27.109Z,33.88
2022-07-27T20:23:57.520Z,33.72
2022-07-27T20:26:25.248Z,30.30
2022-07-27T20:28:55.927Z,28.85
2022-07-27T20:31:23.961Z,27.65
2022-07-27T20:33:52.944Z,26.67
2022-07-27T20:36:21.465Z,30.77
2022-07-27T20:38:49.220Z,27.48
2022-07-27T20:41:17.002Z,26.20
2022-07-27T20:43:44.810Z,26.35
2022-07-27T20:46:13.090Z,28.23
2022-07-27T20:48:43.600Z,25.48
2022-07-27T20:51:11.572Z,26.55
2022-07-27T20:53:42.000Z,29.48
2022-07-27T20:56:10.845Z,28.08
2022-07-27T20:58:41.232Z,27.08
2022-07-27T21:01:09.239Z,26.95
2022-07-27T21:03:38.145Z,29.55
2022-07-27T21:06:05.996Z,29.50
2022-07-27T21:08:38.805Z,29.00
2022-07-27T21:11:09.395Z,30.17
2022-07-27T21:13:39.639Z,28.20
2022-07-27T21:16:07.565Z,28.88
2022-07-27T21:18:35.821Z,31.17
2022-07-27T21:21:03.624Z,28.98
2022-07-27T21:23:52.881Z,35.80
2022-07-27T21:26:20.758Z,29.83
2022-07-27T21:28:50.280Z,31.05
2022-07-27T21:31:18.441Z,35.63
2022-07-27T21:33:48.041Z,37.45
2022-07-27T21:36:16.254Z,34.35
2022-07-27T21:38:43.975Z,36.33
2022-07-27T21:41:11.603Z,30.42
2022-07-27T21:43:39.726Z,28.70
2022-07-27T21:46:07.543Z,26.75
2022-07-27T21:48:35.344Z,25.85
2022-07-27T21:51:03.224Z,23.40
2022-07-27T21:53:30.966Z,26.27
2022-07-27T21:55:59.295Z,26.75
2022-07-27T21:58:27.060Z,26.13
2022-07-27T22:00:55.282Z,28.13
2022-07-27T22:03:22.982Z,28.20
2022-07-27T22:05:50.715Z,27.50
2022-07-27T22:08:18.333Z,24.48
2022-07-27T22:10:46.034Z,27.05
2022-07-27T22:13:13.759Z,26.27
2022-07-27T22:15:41.611Z,28.00
2022-07-27T22:18:10.330Z,25.38
2022-07-27T22:20:38.014Z,26.30
2022-07-27T22:23:05.763Z,25.30
2022-07-27T22:25:33.845Z,23.20
2022-07-27T22:28:01.794Z,23.52
2022-07-27T22:30:29.699Z,20.45
2022-07-27T22:32:57.503Z,29.65
2022-07-27T22:35:25.607Z,23.48
2022-07-27T22:37:53.625Z,19.63
2022-07-27T22:40:22.468Z,24.30
2022-07-27T22:42:50.163Z,22.08
2022-07-27T22:45:18.452Z,22.38
2022-07-27T22:47:46.659Z,24.15
2022-07-27T22:50:18.188Z,24.33
2022-07-27T22:52:47.367Z,25.77
2022-07-27T22:55:15.455Z,22.02
2022-07-27T22:57:43.279Z,23.73
2022-07-27T23:00:11.691Z,24.48
2022-07-27T23:02:39.400Z,23.85
2022-07-27T23:05:07.622Z,25.98
2022-07-27T23:07:35.344Z,28.67
2022-07-27T23:10:03.787Z,28.05
2022-07-27T23:12:31.690Z,26.92
2022-07-27T23:14:59.438Z,30.35
2022-07-27T23:17:27.193Z,35.25
2022-07-27T23:19:54.917Z,32.53
2022-07-27T23:22:23.848Z,33.25
2022-07-27T23:24:51.583Z,37.47
2022-07-27T23:27:19.538Z,36.55
2022-07-27T23:29:47.309Z,38.65
2022-07-27T23:32:15.094Z,36.55
2022-07-27T23:34:42.752Z,36.47
2022-07-27T23:37:11.698Z,35.72
2022-07-27T23:39:39.385Z,34.97
2022-07-27T23:42:07.285Z,29.58
2022-07-27T23:44:34.924Z,29.50
2022-07-27T23:47:02.687Z,29.83
2022-07-27T23:49:30.691Z,28.85
2022-07-27T23:51:59.579Z,30.70
2022-07-27T23:54:27.420Z,31.45
2022-07-27T23:56:55.097Z,31.80
2022-07-27T23:59:23.297Z,28.13
